createdAt,value
2022-11-21T00:01:20.362Z,9.10
2022-11-21T00:03:48.763Z,9.20
2022-11-21T00:06:17.147Z,9.20
2022-11-21T00:08:45.656Z,9.10
2022-11-21T00:11:14.064Z,9.10
2022-11-21T00:13:42.242Z,9.10
2022-11-21T00:16:13.758Z,9.10
2022-11-21T00:18:42.293Z,9.10
2022-11-21T00:21:13.268Z,9.20
2022-11-21T00:23:41.405Z,9.20
2022-11-21T00:26:10.947Z,9.20
2022-11-21T00:28:39.102Z,9.20
2022-11-21T00:31:07.461Z,9.20
2022-11-21T00:33:38.949Z,9.20
2022-11-21T00:36:08.438Z,9.20
2022-11-21T00:38:36.576Z,9.20
2022-11-21T00:41:04.887Z,9.30
2022-11-21T00:43:33.398Z,9.30
2022-11-21T00:46:02.856Z,9.30
2022-11-21T00:48:32.026Z,9.30
2022-11-21T00:51:01.936Z,9.30
2022-11-21T00:53:30.500Z,9.30
2022-11-21T00:55:58.939Z,9.20
2022-11-21T00:58:27.099Z,9.20
2022-11-21T01:01:03.953Z,9.20
2022-11-21T01:03:33.598Z,9.20
2022-11-21T01:06:04.754Z,9.30
2022-11-21T01:08:32.958Z,9.30
2022-11-21T01:11:05.300Z,9.30
2022-11-21T01:13:33.949Z,9.40
2022-11-21T01:16:06.639Z,9.40
2022-11-21T01:18:34.813Z,9.40
2022-11-21T01:21:06.235Z,9.40
2022-11-21T01:23:34.466Z,9.40
2022-11-21T01:26:03.624Z,9.30
2022-11-21T01:28:32.439Z,9.40
2022-11-21T01:31:05.503Z,9.40
2022-11-21T01:33:34.284Z,9.40
2022-11-21T01:36:13.098Z,9.40
2022-11-21T01:38:43.570Z,9.40
2022-11-21T01:41:12.806Z,9.40
2022-11-21T01:43:40.941Z,9.40
2022-11-21T01:46:14.646Z,9.40
2022-11-21T01:48:49.808Z,9.30
2022-11-21T01:51:24.820Z,9.30
2022-11-21T01:53:58.744Z,9.30
2022-11-21T01:56:28.298Z,9.20
2022-11-21T01:59:00.252Z,9.10
2022-11-21T02:01:29.341Z,9.10
2022-11-21T02:03:58.863Z,9.00
2022-11-21T02:06:29.194Z,9.00
2022-11-21T02:08:59.910Z,9.00
2022-11-21T02:11:33.039Z,9.00
2022-11-21T02:14:01.929Z,9.00
2022-11-21T02:16:30.411Z,9.00
2022-11-21T02:18:58.544Z,9.00
2022-11-21T02:21:39.295Z,8.90
2022-11-21T02:24:15.334Z,9.00
2022-11-21T02:26:46.427Z,8.90
2022-11-21T02:29:14.660Z,8.90
2022-11-21T02:31:42.728Z,8.90
2022-11-21T02:34:10.875Z,8.90
2022-11-21T02:36:42.787Z,8.80
2022-11-21T02:39:15.852Z,8.80
2022-11-21T02:41:55.425Z,8.80
2022-11-21T02:44:28.619Z,8.80
2022-11-21T02:46:57.545Z,8.80
2022-11-21T02:49:35.132Z,8.70
2022-11-21T02:52:03.206Z,8.80
2022-11-21T02:54:31.283Z,8.80
2022-11-21T02:57:00.685Z,8.90
2022-11-21T02:59:28.737Z,8.90
2022-11-21T03:01:59.630Z,8.90
2022-11-21T03:04:29.182Z,8.80
2022-11-21T03:06:57.593Z,8.80
2022-11-21T03:09:25.701Z,8.80
2022-11-21T03:11:53.798Z,8.70
2022-11-21T03:14:23.226Z,8.70
2022-11-21T03:16:51.309Z,8.80
2022-11-21T03:19:19.380Z,8.80
2022-11-21T03:21:47.495Z,8.80
2022-11-21T03:24:15.554Z,8.80
2022-11-21T03:26:43.605Z,8.70
2022-11-21T03:29:11.697Z,8.70
2022-11-21T03:31:41.293Z,8.70
2022-11-21T03:34:09.721Z,8.70
2022-11-21T03:36:37.813Z,8.80
2022-11-21T03:39:05.921Z,8.80
2022-11-21T03:41:34.108Z,8.80
2022-11-21T03:44:04.849Z,8.80
2022-11-21T03:46:34.977Z,8.80
2022-11-21T03:49:05.214Z,8.90
2022-11-21T03:51:33.883Z,8.90
2022-11-21T03:54:02.076Z,8.90
2022-11-21T03:56:30.702Z,8.90
2022-11-21T03:58:59.005Z,8.80
2022-11-21T04:01:30.257Z,8.90
2022-11-21T04:04:00.682Z,8.90
2022-11-21T04:06:31.412Z,9.00
2022-11-21T04:08:59.529Z,9.00
2022-11-21T04:11:27.605Z,9.00
2022-11-21T04:13:55.717Z,9.00
2022-11-21T04:16:23.793Z,9.00
2022-11-21T04:18:52.050Z,9.00
2022-11-21T04:21:20.113Z,9.00
2022-11-21T04:23:49.559Z,8.90
2022-11-21T04:26:17.640Z,9.00
2022-11-21T04:28:45.714Z,9.00
2022-11-21T04:31:14.109Z,9.00
2022-11-21T04:33:42.227Z,9.00
2022-11-21T04:36:10.639Z,9.00
2022-11-21T04:38:38.930Z,9.00
2022-11-21T04:41:08.327Z,9.00
2022-11-21T04:43:36.620Z,9.00
2022-11-21T04:46:04.857Z,9.00
2022-11-21T04:48:33.583Z,9.00
2022-11-21T04:51:01.635Z,9.00
2022-11-21T04:53:29.753Z,9.00
2022-11-21T04:55:57.846Z,9.00
2022-11-21T04:58:27.258Z,9.00
2022-11-21T05:00:55.384Z,9.00
2022-11-21T05:03:23.504Z,9.00
2022-11-21T05:05:51.605Z,9.00
2022-11-21T05:08:19.685Z,9.00
2022-11-21T05:11:05.048Z,8.90
2022-11-21T05:13:34.446Z,9.00
2022-11-21T05:16:02.525Z,9.00
2022-11-21T05:18:32.049Z,9.00
2022-11-21T05:21:01.627Z,9.00
2022-11-21T05:23:29.839Z,8.90
2022-11-21T05:25:57.974Z,8.90
2022-11-21T05:28:26.081Z,8.90
2022-11-21T05:30:55.500Z,8.90
2022-11-21T05:33:23.564Z,8.90
2022-11-21T05:35:51.628Z,8.90
2022-11-21T05:38:19.727Z,8.90
2022-11-21T05:40:47.789Z,8.90
2022-11-21T05:43:33.183Z,8.90
2022-11-21T05:46:02.619Z,9.00
2022-11-21T05:48:30.745Z,9.00
2022-11-21T05:50:58.826Z,9.00
2022-11-21T05:53:27.005Z,9.00
2022-11-21T05:55:55.264Z,9.00
2022-11-21T05:58:23.416Z,8.90
2022-11-21T06:00:59.748Z,8.90
2022-11-21T06:03:32.368Z,8.80
2022-11-21T06:06:02.401Z,8.90
2022-11-21T06:08:32.728Z,8.90
2022-11-21T06:11:07.045Z,8.90
2022-11-21T06:13:37.978Z,8.80
2022-11-21T06:16:08.871Z,8.90
2022-11-21T06:18:39.858Z,8.80
2022-11-21T06:21:09.826Z,8.80
2022-11-21T06:23:37.905Z,8.80
2022-11-21T06:26:08.022Z,8.70
2022-11-21T06:28:37.739Z,8.70
2022-11-21T06:31:06.345Z,8.70
2022-11-21T06:33:34.868Z,8.80
2022-11-21T06:36:05.168Z,8.80
2022-11-21T06:38:33.355Z,8.80
2022-11-21T06:41:06.435Z,8.80
2022-11-21T06:43:34.655Z,8.70
2022-11-21T06:46:04.001Z,8.70
2022-11-21T06:48:32.248Z,8.70
2022-11-21T06:51:04.395Z,8.80
2022-11-21T06:53:33.859Z,8.80
2022-11-21T06:56:02.082Z,8.80
2022-11-21T06:58:30.378Z,8.80
2022-11-21T07:00:58.850Z,8.80
2022-11-21T07:03:26.978Z,8.80
2022-11-21T07:05:58.486Z,8.90
2022-11-21T07:08:27.342Z,8.80
2022-11-21T07:11:23.673Z,8.80
2022-11-21T07:13:45.207Z,8.80
2022-11-21T07:16:15.185Z,8.90
2022-11-21T07:18:44.447Z,8.90
2022-11-21T07:21:12.588Z,8.90
2022-11-21T07:23:40.747Z,8.90
2022-11-21T07:26:12.030Z,8.90
2022-11-21T07:28:40.338Z,9.00
2022-11-21T07:31:13.450Z,9.00
2022-11-21T07:33:44.165Z,9.00
2022-11-21T07:36:12.801Z,9.00
2022-11-21T07:38:42.017Z,9.00
2022-11-21T07:41:11.711Z,9.00
2022-11-21T07:43:39.786Z,9.00
2022-11-21T07:46:07.819Z,9.00
2022-11-21T07:48:35.913Z,9.00
2022-11-21T07:51:07.100Z,9.10
2022-11-21T07:53:35.232Z,9.10
2022-11-21T07:56:03.908Z,9.10
2022-11-21T07:58:33.360Z,9.00
2022-11-21T08:01:05.872Z,9.10
2022-11-21T08:03:34.401Z,9.10
2022-11-21T08:06:04.291Z,9.20
2022-11-21T08:08:32.785Z,9.20
2022-11-21T08:11:05.259Z,9.20
2022-11-21T08:13:35.212Z,9.20
2022-11-21T08:16:04.754Z,9.30
2022-11-21T08:18:33.176Z,9.30
2022-11-21T08:21:03.436Z,9.50
2022-11-21T08:23:32.371Z,9.60
2022-11-21T08:26:00.523Z,9.70
2022-11-21T08:28:28.919Z,9.60
2022-11-21T08:30:58.330Z,9.60
2022-11-21T08:33:26.401Z,9.60
2022-11-21T08:35:54.488Z,9.50
2022-11-21T08:38:22.542Z,9.50
2022-11-21T08:41:17.233Z,9.50
2022-11-21T08:43:45.934Z,9.50
2022-11-21T08:46:15.408Z,9.50
2022-11-21T08:48:43.463Z,9.50
2022-11-21T08:51:11.532Z,9.50
2022-11-21T08:53:39.624Z,9.50
2022-11-21T08:56:07.726Z,9.50
2022-11-21T08:58:35.795Z,9.50
2022-11-21T09:01:03.895Z,9.50
2022-11-21T09:03:33.477Z,9.50
2022-11-21T09:06:01.851Z,9.50
2022-11-21T09:08:31.226Z,9.60
2022-11-21T09:10:59.694Z,9.70
2022-11-21T09:13:28.477Z,9.80
2022-11-21T09:16:19.197Z,9.90
2022-11-21T09:18:52.489Z,9.80
2022-11-21T09:21:21.224Z,9.80
2022-11-21T09:23:49.468Z,9.80
2022-11-21T09:26:17.556Z,9.80
2022-11-21T09:28:46.864Z,9.80
2022-11-21T09:31:15.167Z,9.70
2022-11-21T09:33:43.228Z,9.70
2022-11-21T09:36:12.629Z,9.70
2022-11-21T09:38:40.915Z,9.60
2022-11-21T09:41:36.541Z,9.70
2022-11-21T09:44:14.615Z,9.70
2022-11-21T09:46:48.128Z,9.60
2022-11-21T09:49:18.333Z,9.60
2022-11-21T09:51:47.846Z,9.70
2022-11-21T09:54:21.251Z,9.80
2022-11-21T09:56:49.678Z,9.90
2022-11-21T09:59:33.067Z,10.00
2022-11-21T10:02:01.259Z,10.10
2022-11-21T10:04:29.920Z,10.10
2022-11-21T10:07:05.657Z,10.10
2022-11-21T10:09:46.112Z,10.20
2022-11-21T10:12:38.325Z,10.20
2022-11-21T10:15:20.370Z,10.20
2022-11-21T10:18:02.909Z,10.00
2022-11-21T10:20:45.116Z,10.00
2022-11-21T10:23:35.431Z,10.00
2022-11-21T10:26:15.641Z,10.00
2022-11-21T10:28:51.419Z,9.90
2022-11-21T10:31:20.861Z,10.00
2022-11-21T10:33:50.663Z,10.00
2022-11-21T10:36:26.824Z,10.00
2022-11-21T10:39:00.844Z,10.10
2022-11-21T10:41:41.290Z,10.10
2022-11-21T10:44:33.044Z,10.10
2022-11-21T10:47:02.508Z,10.10
2022-11-21T10:49:35.146Z,10.10
2022-11-21T10:52:07.919Z,10.10
2022-11-21T10:55:05.094Z,10.20
2022-11-21T10:57:38.076Z,10.20
2022-11-21T11:00:20.129Z,10.20
2022-11-21T11:03:05.652Z,10.20
2022-11-21T11:05:36.168Z,10.20
2022-11-21T11:08:08.006Z,10.20
2022-11-21T11:10:39.313Z,10.30
2022-11-21T11:13:49.964Z,10.20
2022-11-21T11:16:21.180Z,10.20
2022-11-21T11:18:56.052Z,10.00
2022-11-21T11:21:25.772Z,10.10
2022-11-21T11:23:55.176Z,10.20
2022-11-21T11:26:28.348Z,10.20
2022-11-21T11:29:10.501Z,10.20
2022-11-21T11:31:43.062Z,10.10
2022-11-21T11:34:14.894Z,10.10
2022-11-21T11:36:54.784Z,10.20
2022-11-21T11:39:36.103Z,10.30
2022-11-21T11:42:47.139Z,10.30
2022-11-21T11:45:48.381Z,10.20
2022-11-21T11:48:17.278Z,10.20
2022-11-21T11:50:48.451Z,10.20
2022-11-21T11:53:19.630Z,10.20
2022-11-21T11:55:53.437Z,10.10
2022-11-21T11:58:32.868Z,10.10
2022-11-21T12:01:07.225Z,10.10
2022-11-21T12:03:44.532Z,10.10
2022-11-21T12:06:18.202Z,10.10
2022-11-21T12:08:52.719Z,10.10
2022-11-21T12:11:51.230Z,10.00
2022-11-21T12:14:51.850Z,10.00
2022-11-21T12:17:26.435Z,10.00
2022-11-21T12:19:55.721Z,9.90
2022-11-21T12:22:23.958Z,10.00
2022-11-21T12:24:52.054Z,9.90
2022-11-21T12:27:30.344Z,10.00
2022-11-21T12:30:24.701Z,10.00
2022-11-21T12:33:08.820Z,10.00
2022-11-21T12:36:18.365Z,10.00
2022-11-21T12:39:20.092Z,10.00
2022-11-21T12:42:11.132Z,10.00
2022-11-21T12:44:55.343Z,10.10
2022-11-21T12:48:09.073Z,10.20
2022-11-21T12:51:04.850Z,10.20
2022-11-21T12:53:59.968Z,10.30
2022-11-21T12:56:37.752Z,10.20
2022-11-21T12:59:06.456Z,10.20
2022-11-21T13:01:44.429Z,10.20
2022-11-21T13:04:17.394Z,10.20
2022-11-21T13:06:48.129Z,10.20
2022-11-21T13:09:19.875Z,10.20
2022-11-21T13:12:01.609Z,10.20
2022-11-21T13:14:37.036Z,10.20
2022-11-21T13:17:15.148Z,10.20
2022-11-21T13:19:51.427Z,10.20
2022-11-21T13:22:51.661Z,10.10
2022-11-21T13:25:47.682Z,10.20
2022-11-21T13:28:41.302Z,10.20
2022-11-21T13:31:32.555Z,10.20
2022-11-21T13:34:01.757Z,10.20
2022-11-21T13:36:40.145Z,10.20
2022-11-21T13:39:28.087Z,10.20
2022-11-21T13:42:22.322Z,10.20
2022-11-21T13:44:50.796Z,10.20
2022-11-21T13:47:55.787Z,10.10
2022-11-21T13:51:01.671Z,10.20
2022-11-21T13:53:44.859Z,10.20
2022-11-21T13:56:26.885Z,10.30
2022-11-21T13:59:07.699Z,10.30
2022-11-21T14:02:03.081Z,10.30
2022-11-21T14:04:50.341Z,10.30
2022-11-21T14:07:24.807Z,10.20
2022-11-21T14:09:56.500Z,10.10
2022-11-21T14:12:33.599Z,10.20
2022-11-21T14:15:25.402Z,10.20
2022-11-21T14:17:56.798Z,10.20
2022-11-21T14:20:27.257Z,10.10
2022-11-21T14:22:58.511Z,10.20
2022-11-21T14:25:34.751Z,10.20
2022-11-21T14:28:06.022Z,10.20
2022-11-21T14:30:36.974Z,10.20
2022-11-21T14:33:28.839Z,10.10
2022-11-21T14:36:03.166Z,10.10
2022-11-21T14:38:35.087Z,10.10
2022-11-21T14:41:30.515Z,10.10
2022-11-21T14:44:20.243Z,10.10
2022-11-21T14:46:49.287Z,10.00
2022-11-21T14:49:29.313Z,10.10
2022-11-21T14:52:07.255Z,10.00
2022-11-21T14:55:06.154Z,10.00
2022-11-21T14:57:39.867Z,10.00
2022-11-21T15:00:10.091Z,10.00
2022-11-21T15:02:38.295Z,10.00
2022-11-21T15:05:08.826Z,10.00
2022-11-21T15:07:42.033Z,9.80
2022-11-21T15:10:30.687Z,9.80
2022-11-21T15:13:05.401Z,9.60
2022-11-21T15:15:35.787Z,9.60
2022-11-21T15:20:56.352Z,9.60
2022-11-21T15:23:29.185Z,9.60
2022-11-21T15:26:01.293Z,9.60
2022-11-21T15:28:32.483Z,9.50
2022-11-21T15:31:15.976Z,9.40
2022-11-21T15:37:04.709Z,9.20
2022-11-21T15:39:34.391Z,9.20
2022-11-21T15:42:45.312Z,9.20
2022-11-21T15:45:26.784Z,9.10
2022-11-21T15:47:56.629Z,9.20
2022-11-21T15:50:26.212Z,9.00
2022-11-21T15:52:54.639Z,8.90
2022-11-21T15:55:25.738Z,9.00
2022-11-21T15:57:53.932Z,9.10
2022-11-21T16:00:22.094Z,9.00
2022-11-21T16:02:51.712Z,8.90
2022-11-21T16:05:19.796Z,9.00
2022-11-21T16:07:48.489Z,9.10
2022-11-21T16:10:24.348Z,9.10
2022-11-21T16:12:56.148Z,9.10
2022-11-21T16:15:24.783Z,9.00
2022-11-21T16:17:54.347Z,9.00
2022-11-21T16:20:22.592Z,8.90
2022-11-21T16:22:50.874Z,8.90
2022-11-21T16:25:19.434Z,9.00
2022-11-21T16:27:47.839Z,9.10
2022-11-21T16:30:16.535Z,9.10
2022-11-21T16:32:44.641Z,9.00
2022-11-21T16:35:14.291Z,9.00
2022-11-21T16:37:42.360Z,9.00
2022-11-21T16:40:11.552Z,9.00
2022-11-21T16:42:39.651Z,9.00
2022-11-21T16:45:08.291Z,9.00
2022-11-21T16:47:38.107Z,9.00
2022-11-21T16:50:07.558Z,8.90
2022-11-21T16:52:37.022Z,8.90
2022-11-21T16:55:05.757Z,8.80
2022-11-21T16:57:35.273Z,8.80
2022-11-21T17:00:04.275Z,8.80
2022-11-21T17:02:32.377Z,8.90
2022-11-21T17:05:00.500Z,8.80
2022-11-21T17:07:28.657Z,8.80
2022-11-21T17:09:58.286Z,8.80
2022-11-21T17:12:26.379Z,8.80
2022-11-21T17:14:54.886Z,8.80
2022-11-21T17:17:23.087Z,8.80
2022-11-21T17:19:54.102Z,8.80
2022-11-21T17:22:24.797Z,8.80
2022-11-21T17:24:53.562Z,8.70
2022-11-21T17:27:24.190Z,8.70
2022-11-21T17:29:52.461Z,8.70
2022-11-21T17:32:21.904Z,8.80
2022-11-21T17:34:50.371Z,8.70
2022-11-21T17:37:18.431Z,8.70
2022-11-21T17:39:46.519Z,8.80
2022-11-21T17:42:14.590Z,8.70
2022-11-21T17:44:44.049Z,8.70
2022-11-21T17:47:12.373Z,8.80
2022-11-21T17:49:40.470Z,8.80
2022-11-21T17:52:08.621Z,8.80
2022-11-21T17:54:36.711Z,8.80
2022-11-21T17:57:04.948Z,8.90
2022-11-21T17:59:34.589Z,8.90
2022-11-21T18:02:04.087Z,8.90
2022-11-21T18:04:34.300Z,8.80
2022-11-21T18:07:04.385Z,8.80
2022-11-21T18:09:32.563Z,8.80
2022-11-21T18:12:00.718Z,8.70
2022-11-21T18:14:29.020Z,8.70
2022-11-21T18:16:57.431Z,8.70
2022-11-21T18:19:26.873Z,8.70
2022-11-21T18:21:55.226Z,8.60
2022-11-21T18:24:23.854Z,8.60
2022-11-21T18:26:51.930Z,8.60
2022-11-21T18:29:36.163Z,8.60
2022-11-21T18:32:05.975Z,8.60
2022-11-21T18:34:36.556Z,8.50
2022-11-21T18:37:04.709Z,8.60
2022-11-21T18:39:33.030Z,8.70
2022-11-21T18:42:01.434Z,8.70
2022-11-21T18:44:29.483Z,8.70
2022-11-21T18:46:57.544Z,8.60
2022-11-21T18:49:26.017Z,8.60
2022-11-21T18:51:55.573Z,8.60
2022-11-21T18:54:23.702Z,8.60
2022-11-21T18:56:51.862Z,8.60
2022-11-21T18:59:20.008Z,8.70
2022-11-21T19:01:48.194Z,8.70
2022-11-21T19:04:17.052Z,8.80
2022-11-21T19:06:45.139Z,8.70
2022-11-21T19:09:15.054Z,8.80
2022-11-21T19:11:43.302Z,8.80
2022-11-21T19:14:11.383Z,8.80
2022-11-21T19:16:40.066Z,8.80
2022-11-21T19:19:33.789Z,8.70
2022-11-21T19:21:57.689Z,8.80
2022-11-21T19:24:27.144Z,8.80
2022-11-21T19:26:55.269Z,8.80
2022-11-21T19:29:23.337Z,8.70
2022-11-21T19:31:51.398Z,8.70
2022-11-21T19:34:19.453Z,8.80
2022-11-21T19:36:47.526Z,8.70
2022-11-21T19:39:17.287Z,8.70
2022-11-21T19:41:49.539Z,8.70
2022-11-21T19:44:17.854Z,8.70
2022-11-21T19:46:45.919Z,8.70
2022-11-21T19:49:14.053Z,8.70
2022-11-21T19:51:42.937Z,8.80
2022-11-21T19:54:13.180Z,8.80
2022-11-21T19:56:41.501Z,8.80
2022-11-21T19:59:14.446Z,8.70
2022-11-21T20:01:42.911Z,8.70
2022-11-21T20:04:13.046Z,8.70
2022-11-21T20:06:44.171Z,8.70
2022-11-21T20:09:14.433Z,8.60
2022-11-21T20:11:44.683Z,8.60
2022-11-21T20:14:20.983Z,8.60
2022-11-21T20:16:50.633Z,8.70
2022-11-21T20:19:20.732Z,8.70
2022-11-21T20:21:49.169Z,8.60
2022-11-21T20:24:17.629Z,8.70
2022-11-21T20:26:46.150Z,8.80
2022-11-21T20:29:15.707Z,8.80
2022-11-21T20:31:44.285Z,8.80
2022-11-21T20:34:13.684Z,8.90
2022-11-21T20:36:42.168Z,8.90
2022-11-21T20:39:14.696Z,8.90
2022-11-21T20:41:42.812Z,8.90
2022-11-21T20:47:05.021Z,8.90
2022-11-21T20:49:33.696Z,8.80
2022-11-21T20:54:49.884Z,8.70
2022-11-21T20:57:18.016Z,8.70
2022-11-21T20:59:47.465Z,8.80
2022-11-21T21:02:15.722Z,8.80
2022-11-21T21:04:43.819Z,8.80
2022-11-21T21:07:12.030Z,8.60
2022-11-21T21:09:40.252Z,8.60
2022-11-21T21:12:08.620Z,8.60
2022-11-21T21:14:36.735Z,8.70
2022-11-21T21:17:06.247Z,8.70
2022-11-21T21:19:34.384Z,8.80
2022-11-21T21:22:02.551Z,8.80
2022-11-21T21:24:30.612Z,8.80
2022-11-21T21:26:58.903Z,8.80
2022-11-21T21:29:27.413Z,8.90
2022-11-21T21:31:55.730Z,8.90
2022-11-21T21:34:25.330Z,8.90
2022-11-21T21:36:53.448Z,8.90
2022-11-21T21:39:21.495Z,8.90
2022-11-21T21:41:49.756Z,8.90
2022-11-21T21:44:17.858Z,8.90
2022-11-21T21:46:46.211Z,9.00
2022-11-21T21:49:14.595Z,9.00
2022-11-21T21:51:44.194Z,9.00
2022-11-21T21:54:20.240Z,9.00
2022-11-21T21:56:48.993Z,8.90
2022-11-21T21:59:18.150Z,8.90
2022-11-21T22:01:46.922Z,8.90
2022-11-21T22:04:15.196Z,8.90
2022-11-21T22:06:44.645Z,9.00
2022-11-21T22:09:12.808Z,9.00
2022-11-21T22:11:40.908Z,8.90
2022-11-21T22:14:12.408Z,8.90
2022-11-21T22:16:41.182Z,8.90
2022-11-21T22:19:09.738Z,8.90
2022-11-21T22:21:39.359Z,8.90
2022-11-21T22:24:28.501Z,8.90
2022-11-21T22:26:56.960Z,8.90
2022-11-21T22:29:25.152Z,8.90
2022-11-21T22:31:53.303Z,8.90
2022-11-21T22:34:21.816Z,8.90
2022-11-21T22:36:49.873Z,8.80
2022-11-21T22:39:19.709Z,8.80
2022-11-21T22:41:47.790Z,8.80
2022-11-21T22:44:15.967Z,8.80
2022-11-21T22:46:44.074Z,8.90
2022-11-21T22:49:12.309Z,8.90
2022-11-21T22:51:40.448Z,8.90
2022-11-21T22:54:08.674Z,9.00
2022-11-21T22:56:38.153Z,9.00
2022-11-21T22:59:06.261Z,8.90
2022-11-21T23:01:35.054Z,8.90
2022-11-21T23:04:03.279Z,8.90
2022-11-21T23:06:31.432Z,8.90
2022-11-21T23:08:59.529Z,8.90
2022-11-21T23:11:28.989Z,8.90
2022-11-21T23:13:58.957Z,8.90
2022-11-21T23:16:27.248Z,9.00
2022-11-21T23:18:56.501Z,9.00
2022-11-21T23:21:24.636Z,8.90
2022-11-21T23:23:52.709Z,8.90
2022-11-21T23:26:21.257Z,8.90
2022-11-21T23:28:49.330Z,8.90
2022-11-21T23:31:18.818Z,8.90
2022-11-21T23:33:46.904Z,8.90
2022-11-21T23:36:14.997Z,8.90
2022-11-21T23:38:43.130Z,9.00
2022-11-21T23:41:11.472Z,9.00
2022-11-21T23:43:39.545Z,9.00
2022-11-21T23:46:07.712Z,9.00
2022-11-21T23:48:37.114Z,9.00
2022-11-21T23:51:05.303Z,8.90
2022-11-21T23:53:33.368Z,8.90
2022-11-21T23:56:01.435Z,8.90
2022-11-21T23:58:29.612Z,9.00
